Latest Coastal Weather Observations for Rowley Shoals

IDW60701

Issued at 10:13 pm WST Sunday 28 May 2017 (issued every 10 minutes, with the page automatically refreshed every 10 minutes)

About coastal observations | Map of coastal stations | Coastal observations for WA | Marine services | Other Formats
Station Details ID: 200713 Name: ROWLEY SHOALS Lat: -17.52 Lon: 118.95 Height: 0.0 m
Data from the previous 72 hours. | See also: Recent months at Rowley Shoals
Date/Time
WST
Temp
°C
Wind Pressure Rain since
9am
mm
Weather Cloud Vis
km
Sea
Height
m
Swell
Dir  Spd
kts
Gust
kts
hPa Trend Height
m
Period
s
Dir
28/10:00pm 27.3 SSE 12 14 1014.5 - - - - - - - - -
28/09:30pm 27.1 SSE 12 14 1014.4 - - - - - - - - -
28/09:00pm 27.3 SE 11 13 1014.4 - - - - - - - - -
28/08:30pm 27.2 SE 12 13 1014.4 - - - - - - - - -
28/08:00pm 27.1 SE 11 13 1014.2 - - - - - - - - -
28/07:30pm 27.1 SE 11 13 1013.9 - - - - - - - - -
28/07:00pm 27.4 SE 12 13 1013.7 - - - - - - - - -
28/06:30pm 27.4 SE 12 13 1013.4 - - - - - - - - -
28/06:00pm 27.4 ESE 11 13 1013.1 - - - - - - - - -
28/05:30pm 27.7 SE 11 14 1012.7 - - - - - - - - -
28/05:00pm 27.7 SE 11 13 1012.4 - - - - - - - - -
28/04:30pm 27.6 SE 12 14 1012.3 - - - - - - - - -
28/04:00pm 27.5 SE 12 14 1012.3 - - - - - - - - -
28/03:30pm 27.8 SE 11 14 1012.1 - - - - - - - - -
28/03:00pm 28.0 SE 11 14 1012.0 - - - - - - - - -
28/02:30pm 28.0 SSE 12 15 1011.9 - - - - - - - - -
28/02:00pm 28.0 SSE 13 15 1011.9 - - - - - - - - -
28/01:30pm 27.9 SSE 9 10 1011.8 - - - - - - - - -
28/01:00pm 27.9 SSE 9 11 1011.9 - - - - - - - - -
28/12:30pm 27.9 SSE 9 11 1012.3 - - - - - - - - -
28/12:00pm 27.9 SSE 9 11 1012.7 - - - - - - - - -
28/11:30am 27.7 SSE 9 12 1013.2 - - - - - - - - -
28/11:00am 27.9 SSE 9 10 1013.5 - - - - - - - - -
28/10:30am 27.9 SSE 8 11 1013.8 - - - - - - - - -
28/10:00am 27.8 SE 9 12 1013.8 - - - - - - - - -
28/09:30am 27.7 SE 11 13 1014.0 - - - - - - - - -
28/09:00am 27.6 SSE 9 12 1014.0 - - - - - - - - -
28/08:30am 27.5 SSE 8 11 1013.7 - - - - - - - - -
28/08:00am 27.4 SSE 7 11 1013.6 - - - - - - - - -
28/07:30am 26.9 SSE 9 13 1013.5 - - - - - - - - -
28/07:00am 26.7 SSW 4 5 1013.2 - - - - - - - - -
28/06:30am 26.7 W 3 4 1013.0 - - - - - - - - -
28/06:00am 26.6 WNW 2 3 1012.7 - - - - - - - - -
28/05:30am 26.7 WNW 3 4 1012.2 - - - - - - - - -
28/05:00am 26.7 W 4 5 1012.0 - - - - - - - - -
28/04:30am 26.7 NW 3 3 1011.9 - - - - - - - - -
28/04:00am 26.8 NNW 2 3 1011.9 - - - - - - - - -
28/03:30am 26.8 NNE 1 4 1011.9 - - - - - - - - -
28/03:00am 26.7 CALM 0 0 1012.0 - - - - - - - - -
28/02:30am 26.9 CALM 0 0 1012.4 - - - - - - - - -
28/02:00am 27.0 CALM 0 0 1012.5 - - - - - - - - -
28/01:30am 27.1 NE 4 5 1012.9 - - - - - - - - -
28/01:00am 27.2 NE 4 5 1013.1 - - - - - - - - -
28/12:30am 27.3 NE 4 5 1013.4 - - - - - - - - -
28/12:00am 27.3 ENE 4 4 1013.4 - - - - - - - - -
 
Date/Time
WST
Temp
°C
Wind Pressure Rain since
9am
mm
Weather Cloud Vis
km
Sea
Height
m
Swell
Dir  Spd
kts
Gust
kts
hPa Trend Height
m
Period
s
Dir
27/11:30pm 27.3 ENE 4 5 1013.5 - - - - - - - - -
27/11:00pm 27.4 ENE 5 7 1013.6 - - - - - - - - -
27/10:30pm 27.4 ENE 7 8 1013.4 - - - - - - - - -
27/10:00pm 27.5 ENE 6 7 1013.4 - - - - - - - - -
27/09:30pm 27.5 E 5 6 1013.6 - - - - - - - - -
27/09:00pm 27.3 E 5 6 1013.6 - - - - - - - - -
27/08:30pm 27.4 E 6 6 1013.4 - - - - - - - - -
27/08:00pm 27.4 ESE 6 7 1013.2 - - - - - - - - -
27/07:30pm 27.3 ESE 7 7 1012.8 - - - - - - - - -
27/07:00pm 27.4 ESE 7 8 1012.4 - - - - - - - - -
27/06:30pm 27.4 ESE 7 8 1012.0 - - - - - - - - -
27/06:00pm 27.5 ESE 7 9 1011.9 - - - - - - - - -
27/05:30pm 27.4 ESE 7 8 1011.4 - - - - - - - - -
27/05:00pm 27.7 ESE 7 9 1011.4 - - - - - - - - -
27/04:30pm 27.5 ESE 8 9 1011.3 - - - - - - - - -
27/04:00pm 27.6 ESE 7 9 1011.3 - - - - - - - - -
27/03:30pm 27.6 SE 7 8 1011.2 - - - - - - - - -
27/03:00pm 27.6 SSE 7 9 1011.1 - - - - - - - - -
27/02:30pm 27.6 SE 7 8 1011.2 - - - - - - - - -
27/02:00pm 27.6 SSE 8 10 1011.3 - - - - - - - - -
27/01:30pm 27.6 S 6 8 1011.1 - - - - - - - - -
27/01:00pm 27.6 S 7 9 1011.3 - - - - - - - - -
27/12:30pm 27.8 S 7 9 1011.7 - - - - - - - - -
27/12:00pm 27.5 SSE 7 10 1012.0 - - - - - - - - -
27/11:30am 27.5 S 7 9 1012.3 - - - - - - - - -
27/11:00am 27.5 S 7 9 1012.5 - - - - - - - - -
27/10:30am 27.3 S 9 11 1012.7 - - - - - - - - -
27/10:00am 27.1 S 8 13 1012.8 - - - - - - - - -
27/09:30am 27.3 S 8 10 1012.9 - - - - - - - - -
27/09:00am 26.9 S 10 13 1013.1 - - - - - - - - -
27/08:30am 26.8 S 9 12 1012.9 - - - - - - - - -
27/08:00am 26.8 SSW 9 11 1012.9 - - - - - - - - -
27/07:30am 26.6 SW 5 7 1012.6 - - - - - - - - -
27/07:00am 26.6 SW 6 6 1012.4 - - - - - - - - -
27/06:30am 26.4 NNW 3 4 1012.5 - - - - - - - - -
27/06:00am 26.4 NNW 5 6 1012.3 - - - - - - - - -
27/05:30am 26.5 N 5 6 1011.9 - - - - - - - - -
27/05:00am 26.4 N 5 6 1011.8 - - - - - - - - -
27/04:30am 26.5 N 5 6 1011.8 - - - - - - - - -
27/04:00am 26.5 N 5 7 1011.6 - - - - - - - - -
27/03:30am 26.6 NNE 5 7 1011.7 - - - - - - - - -
27/03:00am 26.6 NNW 3 4 1011.8 - - - - - - - - -
27/02:30am 26.5 CALM 0 0 1011.9 - - - - - - - - -
27/02:18am 26.7 CALM 0 0 1012.1 - - - - - - - - -
27/02:16am 1.2 CALM 0 3 1012.1 - - - - - - - - -
27/02:15am -14.9 CALM 0 3 1012.1 - - - - - - - - -
27/02:14am -30.8 SW 1 3 1012.1 - - - - - - - - -
27/02:13am -46.5 SW 1 3 1012.1 - - - - - - - - -
27/02:00am 26.7 CALM 0 0 1012.1 - - - - - - - - -
27/01:30am 26.8 SSW 5 6 1012.3 - - - - - - - - -
27/01:00am 26.9 SSW 5 5 1012.6 - - - - - - - - -
27/12:30am 27.0 S 1 5 1012.7 - - - - - - - - -
27/12:00am 26.9 CALM 0 0 1012.8 - - - - - - - - -
 
Date/Time
WST
Temp
°C
Wind Pressure Rain since
9am
mm
Weather Cloud Vis
km
Sea
Height
m
Swell
Dir  Spd
kts
Gust
kts
hPa Trend Height
m
Period
s
Dir
26/11:30pm 26.9 CALM 0 3 1012.9 - - - - - - - - -
26/11:00pm 26.9 CALM 0 2 1013.0 - - - - - - - - -
26/10:30pm 27.1 ENE 3 4 1013.1 - - - - - - - - -
26/10:00pm 27.1 E 5 7 1013.2 - - - - - - - - -
26/09:30pm 27.3 E 6 7 1013.2 - - - - - - - - -
26/09:00pm 27.3 E 6 7 1013.1 - - - - - - - - -
26/08:30pm 27.3 ESE 7 8 1012.9 - - - - - - - - -
26/08:00pm 27.3 ESE 7 8 1012.9 - - - - - - - - -
26/07:30pm 27.3 SE 7 8 1012.5 - - - - - - - - -
26/07:00pm 27.3 ESE 8 11 1012.3 - - - - - - - - -
26/06:30pm 27.4 SSE 8 9 1011.8 - - - - - - - - -
26/06:00pm 27.3 ESE 8 9 1011.7 - - - - - - - - -
26/05:30pm 27.4 SE 8 10 1011.5 - - - - - - - - -
26/05:00pm 27.5 SSE 9 11 1011.4 - - - - - - - - -
26/04:30pm 27.8 SSE 8 11 1011.1 - - - - - - - - -
26/04:00pm 27.6 SSE 9 12 1011.0 - - - - - - - - -
26/03:30pm 27.8 SSE 9 12 1011.0 - - - - - - - - -
26/03:00pm 28.0 SSE 9 12 1011.0 - - - - - - - - -
26/02:30pm 28.1 SSE 9 12 1011.1 - - - - - - - - -
26/02:00pm 28.0 S 9 11 1011.0 - - - - - - - - -
26/01:30pm 28.0 S 8 11 1011.2 - - - - - - - - -
26/01:00pm 28.0 S 7 10 1011.5 - - - - - - - - -
26/12:30pm 28.0 S 8 9 1012.0 - - - - - - - - -
26/12:00pm 28.2 SSE 8 11 1012.3 - - - - - - - - -
26/11:30am 28.2 SSE 10 11 1012.8 - - - - - - - - -
26/11:00am 28.3 S 7 9 1013.0 - - - - - - - - -
26/10:30am 28.2 S 7 9 1013.3 - - - - - - - - -
26/10:00am 28.2 S 7 10 1013.5 - - - - - - - - -
26/09:30am 28.2 SSE 9 13 1013.7 - - - - - - - - -
26/09:00am 28.2 SSE 10 12 1013.8 - - - - - - - - -
26/08:30am 27.8 SSE 11 14 1013.6 - - - - - - - - -
26/08:00am 27.9 SSE 12 14 1013.5 - - - - - - - - -
26/07:30am 28.0 SSE 16 18 1013.3 - - - - - - - - -
26/07:00am 28.1 SSE 13 19 1013.0 - - - - - - - - -
26/06:30am 27.6 S 9 11 1012.5 - - - - - - - - -
26/06:00am 27.6 S 8 10 1012.3 - - - - - - - - -
26/05:30am 27.7 S 10 11 1012.0 - - - - - - - - -
26/05:00am 27.8 SSW 11 12 1011.8 - - - - - - - - -
26/04:30am 27.7 SSW 10 11 1011.8 - - - - - - - - -
26/04:00am 27.8 SSW 8 9 1011.9 - - - - - - - - -
26/03:30am 27.8 SSW 8 9 1011.9 - - - - - - - - -
26/03:00am 27.8 S 8 9 1012.1 - - - - - - - - -
26/02:30am 27.8 S 6 8 1012.4 - - - - - - - - -
26/02:00am 27.9 S 5 8 1012.5 - - - - - - - - -
26/01:30am 27.7 SSE 7 9 1012.8 - - - - - - - - -
26/01:00am 27.8 SSE 7 8 1012.9 - - - - - - - - -
26/12:30am 27.7 SSE 8 9 1013.3 - - - - - - - - -
26/12:00am 27.7 SSE 8 9 1013.4 - - - - - - - - -
 
Date/Time
WST
Temp
°C
Wind Pressure Rain since
9am
mm
Weather Cloud Vis
km
Sea
Height
m
Swell
Dir  Spd
kts
Gust
kts
hPa Trend Height
m
Period
s
Dir
25/11:30pm 27.6 SSE 9 10 1013.6 - - - - - - - - -
25/11:00pm 27.7 SSE 9 10 1013.7 - - - - - - - - -
25/10:30pm 27.7 SSE 9 10 1013.7 - - - - - - - - -

Other Formats:

Comma delimited format used in spreadsheet applications
http://www.bom.gov.au/fwo/IDW60701/IDW60701.94207.axf

JavaScript Object Notation format (JSON) in row-major order
http://www.bom.gov.au/fwo/IDW60701/IDW60701.94207.json